sensor_id;sensor_type;location;lat;lon;timestamp;pressure;altitude;pressure_sealevel;temperature;humidity
12219;BME280;6172;42.646;23.344;2023-04-26T00:02:00;93736.19;;;7.21;100.00
12219;BME280;6172;42.646;23.344;2023-04-26T00:04:29;93738.47;;;7.03;100.00
12219;BME280;6172;42.646;23.344;2023-04-26T00:06:55;93729.34;;;6.94;100.00
12219;BME280;6172;42.646;23.344;2023-04-26T00:09:23;93725.56;;;7.11;100.00
12219;BME280;6172;42.646;23.344;2023-04-26T00:11:50;93721.81;;;7.05;100.00
12219;BME280;6172;42.646;23.344;2023-04-26T00:14:16;93715.75;;;6.97;100.00
12219;BME280;6172;42.646;23.344;2023-04-26T00:16:43;93717.16;;;6.82;100.00
12219;BME280;6172;42.646;23.344;2023-04-26T00:19:11;93718.69;;;6.83;100.00
12219;BME280;6172;42.646;23.344;2023-04-26T00:21:38;93713.31;;;7.03;100.00
12219;BME280;6172;42.646;23.344;2023-04-26T00:24:06;93715.06;;;7.13;100.00
12219;BME280;6172;42.646;23.344;2023-04-26T00:26:34;93707.84;;;7.06;100.00
12219;BME280;6172;42.646;23.344;2023-04-26T00:29:01;93707.94;;;7.22;100.00
12219;BME280;6172;42.646;23.344;2023-04-26T00:31:28;93697.53;;;7.21;100.00
12219;BME280;6172;42.646;23.344;2023-04-26T00:33:55;93697.84;;;7.23;100.00
12219;BME280;6172;42.646;23.344;2023-04-26T00:36:23;93692.44;;;7.23;100.00
12219;BME280;6172;42.646;23.344;2023-04-26T00:38:50;93686.38;;;7.15;100.00
12219;BME280;6172;42.646;23.344;2023-04-26T00:41:17;93690.28;;;7.14;100.00
12219;BME280;6172;42.646;23.344;2023-04-26T00:43:44;93680.03;;;6.83;100.00
12219;BME280;6172;42.646;23.344;2023-04-26T00:46:11;93690.06;;;6.82;100.00
12219;BME280;6172;42.646;23.344;2023-04-26T00:48:38;93696.94;;;6.67;100.00
12219;BME280;6172;42.646;23.344;2023-04-26T00:51:06;93692.69;;;6.66;100.00
12219;BME280;6172;42.646;23.344;2023-04-26T00:53:35;93697.44;;;6.82;100.00
12219;BME280;6172;42.646;23.344;2023-04-26T00:56:02;93692.69;;;6.89;100.00
12219;BME280;6172;42.646;23.344;2023-04-26T00:58:32;93693.63;;;6.79;100.00
12219;BME280;6172;42.646;23.344;2023-04-26T01:00:59;93698.81;;;6.70;100.00
12219;BME280;6172;42.646;23.344;2023-04-26T01:03:27;93696.50;;;6.69;100.00
12219;BME280;6172;42.646;23.344;2023-04-26T01:05:54;93691.22;;;6.62;100.00
12219;BME280;6172;42.646;23.344;2023-04-26T01:08:22;93698.00;;;6.73;100.00
12219;BME280;6172;42.646;23.344;2023-04-26T01:10:52;93701.69;;;6.83;100.00
12219;BME280;6172;42.646;23.344;2023-04-26T01:13:18;93691.25;;;6.81;100.00
12219;BME280;6172;42.646;23.344;2023-04-26T01:15:46;93696.41;;;6.76;100.00
12219;BME280;6172;42.646;23.344;2023-04-26T01:18:14;93701.41;;;6.77;100.00
12219;BME280;6172;42.646;23.344;2023-04-26T01:20:41;93685.44;;;6.83;100.00
12219;BME280;6172;42.646;23.344;2023-04-26T01:23:09;93679.47;;;6.45;100.00
12219;BME280;6172;42.646;23.344;2023-04-26T01:25:37;93670.81;;;6.31;100.00
12219;BME280;6172;42.646;23.344;2023-04-26T01:28:04;93680.66;;;6.44;100.00
12219;BME280;6172;42.646;23.344;2023-04-26T01:30:31;93675.94;;;6.48;100.00
12219;BME280;6172;42.646;23.344;2023-04-26T01:32:57;93670.81;;;6.31;100.00
12219;BME280;6172;42.646;23.344;2023-04-26T01:35:24;93679.16;;;6.17;100.00
12219;BME280;6172;42.646;23.344;2023-04-26T01:37:51;93688.63;;;6.28;100.00
12219;BME280;6172;42.646;23.344;2023-04-26T01:40:20;93692.53;;;6.27;100.00
12219;BME280;6172;42.646;23.344;2023-04-26T01:42:47;93694.16;;;6.21;100.00
12219;BME280;6172;42.646;23.344;2023-04-26T01:45:14;93711.31;;;6.11;100.00
12219;BME280;6172;42.646;23.344;2023-04-26T01:47:41;93699.81;;;6.30;100.00
12219;BME280;6172;42.646;23.344;2023-04-26T01:50:09;93706.91;;;6.21;100.00
12219;BME280;6172;42.646;23.344;2023-04-26T01:52:36;93702.28;;;6.21;100.00
12219;BME280;6172;42.646;23.344;2023-04-26T01:55:03;93691.81;;;6.23;100.00
12219;BME280;6172;42.646;23.344;2023-04-26T01:57:33;93682.63;;;6.17;100.00
12219;BME280;6172;42.646;23.344;2023-04-26T02:00:00;93690.25;;;6.22;100.00
12219;BME280;6172;42.646;23.344;2023-04-26T02:02:27;93682.03;;;6.29;100.00
12219;BME280;6172;42.646;23.344;2023-04-26T02:04:54;93680.88;;;6.30;100.00
12219;BME280;6172;42.646;23.344;2023-04-26T02:07:21;93657.69;;;6.29;100.00
12219;BME280;6172;42.646;23.344;2023-04-26T02:09:48;93666.75;;;6.42;100.00
12219;BME280;6172;42.646;23.344;2023-04-26T02:12:15;93669.13;;;6.40;100.00
12219;BME280;6172;42.646;23.344;2023-04-26T02:14:43;93664.22;;;6.32;100.00
12219;BME280;6172;42.646;23.344;2023-04-26T02:17:10;93660.06;;;6.27;100.00
12219;BME280;6172;42.646;23.344;2023-04-26T02:19:38;93662.75;;;6.27;100.00
12219;BME280;6172;42.646;23.344;2023-04-26T02:22:05;93667.88;;;5.95;100.00
12219;BME280;6172;42.646;23.344;2023-04-26T02:24:32;93662.50;;;5.65;100.00
12219;BME280;6172;42.646;23.344;2023-04-26T02:26:59;93674.94;;;5.59;100.00
12219;BME280;6172;42.646;23.344;2023-04-26T02:29:28;93679.66;;;5.51;100.00
12219;BME280;6172;42.646;23.344;2023-04-26T02:31:56;93684.53;;;5.63;100.00
12219;BME280;6172;42.646;23.344;2023-04-26T02:34:23;93685.22;;;5.71;100.00
12219;BME280;6172;42.646;23.344;2023-04-26T02:36:50;93685.09;;;5.82;100.00
12219;BME280;6172;42.646;23.344;2023-04-26T02:39:17;93684.47;;;5.97;100.00
12219;BME280;6172;42.646;23.344;2023-04-26T02:41:43;93675.06;;;6.05;100.00
12219;BME280;6172;42.646;23.344;2023-04-26T02:44:10;93670.31;;;6.13;100.00
12219;BME280;6172;42.646;23.344;2023-04-26T02:46:37;93668.69;;;5.65;100.00
12219;BME280;6172;42.646;23.344;2023-04-26T02:49:05;93661.69;;;5.68;100.00
12219;BME280;6172;42.646;23.344;2023-04-26T02:51:32;93657.81;;;5.69;100.00
12219;BME280;6172;42.646;23.344;2023-04-26T02:53:59;93656.19;;;5.75;100.00
12219;BME280;6172;42.646;23.344;2023-04-26T02:56:27;93647.00;;;5.69;100.00
12219;BME280;6172;42.646;23.344;2023-04-26T02:58:54;93653.84;;;5.77;100.00
12219;BME280;6172;42.646;23.344;2023-04-26T03:01:21;93658.69;;;5.89;100.00
12219;BME280;6172;42.646;23.344;2023-04-26T03:03:48;93655.28;;;5.85;100.00
12219;BME280;6172;42.646;23.344;2023-04-26T03:06:16;93659.75;;;5.95;100.00
12219;BME280;6172;42.646;23.344;2023-04-26T03:08:44;93650.28;;;6.10;100.00
12219;BME280;6172;42.646;23.344;2023-04-26T03:11:10;93655.97;;;6.16;100.00
12219;BME280;6172;42.646;23.344;2023-04-26T03:13:37;93652.91;;;6.14;100.00
12219;BME280;6172;42.646;23.344;2023-04-26T03:16:05;93644.88;;;6.10;100.00
12219;BME280;6172;42.646;23.344;2023-04-26T03:18:32;93646.75;;;6.13;100.00
12219;BME280;6172;42.646;23.344;2023-04-26T03:20:59;93642.78;;;6.18;100.00
12219;BME280;6172;42.646;23.344;2023-04-26T03:23:27;93646.16;;;6.25;100.00
12219;BME280;6172;42.646;23.344;2023-04-26T03:25:55;93650.47;;;6.23;100.00
12219;BME280;6172;42.646;23.344;2023-04-26T03:28:23;93643.19;;;6.16;100.00
12219;BME280;6172;42.646;23.344;2023-04-26T03:30:50;93656.16;;;6.28;100.00
12219;BME280;6172;42.646;23.344;2023-04-26T03:33:17;93654.75;;;6.20;100.00
12219;BME280;6172;42.646;23.344;2023-04-26T03:35:43;93649.06;;;6.15;100.00
12219;BME280;6172;42.646;23.344;2023-04-26T03:38:10;93652.63;;;6.31;100.00
12219;BME280;6172;42.646;23.344;2023-04-26T03:40:39;93657.69;;;6.29;100.00
12219;BME280;6172;42.646;23.344;2023-04-26T03:43:06;93660.06;;;6.27;100.00
12219;BME280;6172;42.646;23.344;2023-04-26T03:45:33;93660.09;;;6.47;100.00
12219;BME280;6172;42.646;23.344;2023-04-26T03:48:00;93650.50;;;6.42;100.00
12219;BME280;6172;42.646;23.344;2023-04-26T03:50:26;93661.22;;;6.49;100.00
12219;BME280;6172;42.646;23.344;2023-04-26T03:52:53;93662.00;;;6.50;100.00
12219;BME280;6172;42.646;23.344;2023-04-26T03:55:20;93655.81;;;6.49;100.00
12219;BME280;6172;42.646;23.344;2023-04-26T03:57:49;93656.84;;;6.59;100.00
12219;BME280;6172;42.646;23.344;2023-04-26T04:00:15;93651.84;;;6.57;100.00
12219;BME280;6172;42.646;23.344;2023-04-26T04:02:43;93659.84;;;6.64;100.00
12219;BME280;6172;42.646;23.344;2023-04-26T04:05:09;93668.84;;;6.81;100.00
12219;BME280;6172;42.646;23.344;2023-04-26T04:07:36;93667.31;;;6.80;100.00
12219;BME280;6172;42.646;23.344;2023-04-26T04:10:03;93664.47;;;6.87;100.00
12219;BME280;6172;42.646;23.344;2023-04-26T04:12:31;93675.53;;;6.96;100.00
12219;BME280;6172;42.646;23.344;2023-04-26T04:15:02;93680.75;;;7.06;100.00
12219;BME280;6172;42.646;23.344;2023-04-26T04:17:29;93680.25;;;7.11;100.00
12219;BME280;6172;42.646;23.344;2023-04-26T04:19:56;93670.47;;;7.17;100.00
12219;BME280;6172;42.646;23.344;2023-04-26T04:22:23;93676.41;;;7.12;100.00
12219;BME280;6172;42.646;23.344;2023-04-26T04:24:50;93681.19;;;7.05;100.00
12219;BME280;6172;42.646;23.344;2023-04-26T04:27:17;93685.41;;;7.25;100.00
12219;BME280;6172;42.646;23.344;2023-04-26T04:29:45;93692.47;;;7.42;100.00
12219;BME280;6172;42.646;23.344;2023-04-26T04:32:14;93689.09;;;7.54;100.00
12219;BME280;6172;42.646;23.344;2023-04-26T04:34:41;93694.78;;;7.60;100.00
12219;BME280;6172;42.646;23.344;2023-04-26T04:37:09;93684.19;;;7.49;100.00
12219;BME280;6172;42.646;23.344;2023-04-26T04:39:36;93670.81;;;7.58;100.00
12219;BME280;6172;42.646;23.344;2023-04-26T04:42:03;93699.13;;;7.77;100.00
12219;BME280;6172;42.646;23.344;2023-04-26T04:44:48;93689.84;;;7.74;100.00
12219;BME280;6172;42.646;23.344;2023-04-26T04:47:17;93682.84;;;7.77;100.00
12219;BME280;6172;42.646;23.344;2023-04-26T04:49:44;93684.47;;;7.90;100.00
12219;BME280;6172;42.646;23.344;2023-04-26T04:52:11;93692.53;;;7.94;100.00
12219;BME280;6172;42.646;23.344;2023-04-26T04:54:38;93689.28;;;7.83;100.00
12219;BME280;6172;42.646;23.344;2023-04-26T04:57:05;93691.41;;;7.75;100.00
12219;BME280;6172;42.646;23.344;2023-04-26T04:59:33;93691.31;;;7.79;100.00
12219;BME280;6172;42.646;23.344;2023-04-26T05:02:00;93694.28;;;7.84;100.00
12219;BME280;6172;42.646;23.344;2023-04-26T05:04:29;93690.72;;;7.87;100.00
12219;BME280;6172;42.646;23.344;2023-04-26T05:06:58;93687.94;;;8.27;100.00
12219;BME280;6172;42.646;23.344;2023-04-26T05:09:25;93694.00;;;7.98;100.00
12219;BME280;6172;42.646;23.344;2023-04-26T05:11:52;93695.88;;;8.18;100.00
12219;BME280;6172;42.646;23.344;2023-04-26T05:14:19;93682.63;;;8.39;100.00
12219;BME280;6172;42.646;23.344;2023-04-26T05:16:48;93681.66;;;8.30;100.00
12219;BME280;6172;42.646;23.344;2023-04-26T05:19:15;93677.75;;;8.31;100.00
12219;BME280;6172;42.646;23.344;2023-04-26T05:21:43;93684.25;;;8.53;100.00
12219;BME280;6172;42.646;23.344;2023-04-26T05:24:10;93679.31;;;8.80;100.00
12219;BME280;6172;42.646;23.344;2023-04-26T05:26:37;93680.81;;;8.97;100.00
12219;BME280;6172;42.646;23.344;2023-04-26T05:29:03;93693.88;;;9.18;100.00
12219;BME280;6172;42.646;23.344;2023-04-26T05:31:30;93687.81;;;9.55;100.00
12219;BME280;6172;42.646;23.344;2023-04-26T05:33:57;93685.50;;;9.53;100.00
12219;BME280;6172;42.646;23.344;2023-04-26T05:36:24;93678.13;;;9.95;100.00
12219;BME280;6172;42.646;23.344;2023-04-26T05:38:52;93680.31;;;10.25;100.00
12219;BME280;6172;42.646;23.344;2023-04-26T05:41:19;93669.41;;;10.00;100.00
12219;BME280;6172;42.646;23.344;2023-04-26T05:43:46;93672.94;;;10.38;100.00
12219;BME280;6172;42.646;23.344;2023-04-26T05:46:13;93675.81;;;10.81;100.00
12219;BME280;6172;42.646;23.344;2023-04-26T05:48:40;93666.94;;;11.02;100.00
12219;BME280;6172;42.646;23.344;2023-04-26T05:51:06;93679.25;;;10.60;100.00
12219;BME280;6172;42.646;23.344;2023-04-26T05:53:34;93678.06;;;10.95;100.00
12219;BME280;6172;42.646;23.344;2023-04-26T05:56:02;93671.09;;;10.94;100.00
12219;BME280;6172;42.646;23.344;2023-04-26T05:58:29;93669.31;;;11.13;100.00
12219;BME280;6172;42.646;23.344;2023-04-26T06:00:58;93665.31;;;10.92;100.00
12219;BME280;6172;42.646;23.344;2023-04-26T06:03:24;93667.88;;;10.74;100.00
12219;BME280;6172;42.646;23.344;2023-04-26T06:05:51;93675.72;;;10.72;100.00
12219;BME280;6172;42.646;23.344;2023-04-26T06:08:18;93672.28;;;11.61;100.00
12219;BME280;6172;42.646;23.344;2023-04-26T06:10:45;93653.31;;;12.01;100.00
12219;BME280;6172;42.646;23.344;2023-04-26T06:13:13;93664.97;;;12.62;100.00
12219;BME280;6172;42.646;23.344;2023-04-26T06:15:40;93662.97;;;13.84;100.00
12219;BME280;6172;42.646;23.344;2023-04-26T06:18:07;93658.63;;;14.28;100.00
12219;BME280;6172;42.646;23.344;2023-04-26T06:20:34;93647.59;;;14.78;100.00
12219;BME280;6172;42.646;23.344;2023-04-26T06:23:01;93646.06;;;15.10;99.62
12219;BME280;6172;42.646;23.344;2023-04-26T06:25:29;93651.47;;;14.63;98.25
12219;BME280;6172;42.646;23.344;2023-04-26T06:27:55;93652.47;;;15.54;93.54
12219;BME280;6172;42.646;23.344;2023-04-26T06:30:24;93647.75;;;15.07;89.44
12219;BME280;6172;42.646;23.344;2023-04-26T06:32:51;93648.78;;;14.86;83.90
12219;BME280;6172;42.646;23.344;2023-04-26T06:35:18;93643.66;;;14.79;75.46
12219;BME280;6172;42.646;23.344;2023-04-26T06:37:45;93654.31;;;14.36;76.18
12219;BME280;6172;42.646;23.344;2023-04-26T06:40:12;93653.84;;;13.24;94.17
12219;BME280;6172;42.646;23.344;2023-04-26T06:42:40;93658.81;;;12.89;100.00
12219;BME280;6172;42.646;23.344;2023-04-26T06:45:08;93663.72;;;12.24;100.00
12219;BME280;6172;42.646;23.344;2023-04-26T06:47:37;93659.22;;;12.08;100.00
12219;BME280;6172;42.646;23.344;2023-04-26T06:50:04;93662.91;;;11.62;100.00
12219;BME280;6172;42.646;23.344;2023-04-26T06:52:31;93668.13;;;12.00;100.00
12219;BME280;6172;42.646;23.344;2023-04-26T06:55:00;93665.13;;;11.98;100.00
12219;BME280;6172;42.646;23.344;2023-04-26T06:57:27;93662.28;;;12.41;100.00
12219;BME280;6172;42.646;23.344;2023-04-26T06:59:54;93659.84;;;12.43;100.00
12219;BME280;6172;42.646;23.344;2023-04-26T07:02:22;93662.16;;;12.93;99.00
12219;BME280;6172;42.646;23.344;2023-04-26T07:04:50;93662.19;;;13.65;89.04
12219;BME280;6172;42.646;23.344;2023-04-26T07:07:17;93665.38;;;14.00;87.81
12219;BME280;6172;42.646;23.344;2023-04-26T07:09:44;93668.31;;;13.87;85.80
12219;BME280;6172;42.646;23.344;2023-04-26T07:12:10;93666.31;;;13.61;86.63
12219;BME280;6172;42.646;23.344;2023-04-26T07:14:38;93672.66;;;13.04;89.60
12219;BME280;6172;42.646;23.344;2023-04-26T07:17:05;93664.34;;;13.52;83.78
12219;BME280;6172;42.646;23.344;2023-04-26T07:19:32;93672.53;;;13.25;85.38
12219;BME280;6172;42.646;23.344;2023-04-26T07:22:00;93667.97;;;14.03;76.09
12219;BME280;6172;42.646;23.344;2023-04-26T07:24:27;93659.66;;;14.39;73.07
12219;BME280;6172;42.646;23.344;2023-04-26T07:26:55;93663.63;;;15.03;67.84
12219;BME280;6172;42.646;23.344;2023-04-26T07:29:22;93662.91;;;16.32;61.13
12219;BME280;6172;42.646;23.344;2023-04-26T07:31:49;93657.34;;;16.75;53.15
12219;BME280;6172;42.646;23.344;2023-04-26T07:34:15;93655.91;;;16.65;52.05
12219;BME280;6172;42.646;23.344;2023-04-26T07:36:42;93661.28;;;17.03;51.04
12219;BME280;6172;42.646;23.344;2023-04-26T07:39:11;93657.91;;;16.94;50.03
12219;BME280;6172;42.646;23.344;2023-04-26T07:41:39;93667.66;;;16.95;47.86
12219;BME280;6172;42.646;23.344;2023-04-26T07:44:09;93668.88;;;16.45;48.32
12219;BME280;6172;42.646;23.344;2023-04-26T07:46:36;93671.13;;;16.46;48.65
12219;BME280;6172;42.646;23.344;2023-04-26T07:49:02;93677.03;;;16.10;50.19
12219;BME280;6172;42.646;23.344;2023-04-26T07:51:29;93674.38;;;15.40;50.86
12219;BME280;6172;42.646;23.344;2023-04-26T07:53:56;93680.47;;;14.87;53.28
12219;BME280;6172;42.646;23.344;2023-04-26T07:56:25;93682.78;;;14.80;54.04
12219;BME280;6172;42.646;23.344;2023-04-26T07:58:52;93682.22;;;14.76;54.24
12219;BME280;6172;42.646;23.344;2023-04-26T08:01:18;93685.00;;;14.67;53.66
12219;BME280;6172;42.646;23.344;2023-04-26T08:03:46;93688.63;;;14.73;53.87
12219;BME280;6172;42.646;23.344;2023-04-26T08:06:13;93693.53;;;14.00;55.64
12219;BME280;6172;42.646;23.344;2023-04-26T08:08:41;93679.06;;;14.59;56.60
12219;BME280;6172;42.646;23.344;2023-04-26T08:11:09;93681.56;;;15.14;54.94
12219;BME280;6172;42.646;23.344;2023-04-26T08:13:38;93685.00;;;15.47;51.59
12219;BME280;6172;42.646;23.344;2023-04-26T08:16:06;93689.56;;;15.26;52.25
12219;BME280;6172;42.646;23.344;2023-04-26T08:18:33;93696.06;;;14.81;53.62
12219;BME280;6172;42.646;23.344;2023-04-26T08:20:59;93684.13;;;14.52;55.42
12219;BME280;6172;42.646;23.344;2023-04-26T08:23:26;93689.00;;;14.48;56.66
12219;BME280;6172;42.646;23.344;2023-04-26T08:25:55;93695.78;;;14.20;57.41
12219;BME280;6172;42.646;23.344;2023-04-26T08:28:22;93690.28;;;14.20;57.66
12219;BME280;6172;42.646;23.344;2023-04-26T08:30:50;93679.72;;;13.77;57.46
12219;BME280;6172;42.646;23.344;2023-04-26T08:33:17;93692.03;;;13.81;59.31
12219;BME280;6172;42.646;23.344;2023-04-26T08:35:44;93687.19;;;13.67;59.44
12219;BME280;6172;42.646;23.344;2023-04-26T08:38:11;93689.09;;;14.12;58.48
12219;BME280;6172;42.646;23.344;2023-04-26T08:40:40;93690.78;;;14.09;59.09
12219;BME280;6172;42.646;23.344;2023-04-26T08:43:09;93695.41;;;13.76;61.26
12219;BME280;6172;42.646;23.344;2023-04-26T08:45:38;93686.88;;;13.56;61.97
12219;BME280;6172;42.646;23.344;2023-04-26T08:48:10;93697.13;;;13.16;65.59
12219;BME280;6172;42.646;23.344;2023-04-26T08:50:39;93698.84;;;13.32;65.52
12219;BME280;6172;42.646;23.344;2023-04-26T08:53:07;93698.97;;;13.19;65.63
12219;BME280;6172;42.646;23.344;2023-04-26T08:55:35;93686.84;;;13.38;63.34
12219;BME280;6172;42.646;23.344;2023-04-26T08:58:04;93700.19;;;13.18;63.66
12219;BME280;6172;42.646;23.344;2023-04-26T09:00:32;93692.16;;;13.60;63.10
12219;BME280;6172;42.646;23.344;2023-04-26T09:02:59;93699.00;;;13.55;61.33
12219;BME280;6172;42.646;23.344;2023-04-26T09:05:27;93696.72;;;13.27;63.55
12219;BME280;6172;42.646;23.344;2023-04-26T09:07:56;93704.94;;;13.63;61.97
12219;BME280;6172;42.646;23.344;2023-04-26T09:10:26;93706.03;;;13.56;63.48
12219;BME280;6172;42.646;23.344;2023-04-26T09:12:53;93707.81;;;13.59;62.02
12219;BME280;6172;42.646;23.344;2023-04-26T09:15:22;93704.00;;;13.48;60.98
12219;BME280;6172;42.646;23.344;2023-04-26T09:17:49;93714.69;;;13.46;63.51
12219;BME280;6172;42.646;23.344;2023-04-26T09:20:18;93706.81;;;13.75;62.27
12219;BME280;6172;42.646;23.344;2023-04-26T09:22:47;93705.84;;;13.42;61.42
12219;BME280;6172;42.646;23.344;2023-04-26T09:25:16;93711.31;;;13.33;63.27
12219;BME280;6172;42.646;23.344;2023-04-26T09:27:44;93713.75;;;13.22;63.20
12219;BME280;6172;42.646;23.344;2023-04-26T09:30:13;93714.06;;;13.33;64.90
12219;BME280;6172;42.646;23.344;2023-04-26T09:32:49;93703.38;;;13.17;65.33
12219;BME280;6172;42.646;23.344;2023-04-26T09:35:28;93705.72;;;13.54;61.42
12219;BME280;6172;42.646;23.344;2023-04-26T09:37:59;93710.66;;;13.11;61.76
12219;BME280;6172;42.646;23.344;2023-04-26T09:40:27;93711.75;;;13.13;63.15
12219;BME280;6172;42.646;23.344;2023-04-26T09:42:59;93703.66;;;13.01;62.98
12219;BME280;6172;42.646;23.344;2023-04-26T09:45:27;93710.53;;;13.32;61.50
12219;BME280;6172;42.646;23.344;2023-04-26T09:48:11;93698.84;;;13.50;62.42
12219;BME280;6172;42.646;23.344;2023-04-26T09:50:39;93700.84;;;13.85;60.03
12219;BME280;6172;42.646;23.344;2023-04-26T09:53:09;93701.31;;;13.93;59.24
12219;BME280;6172;42.646;23.344;2023-04-26T09:55:36;93691.19;;;14.35;58.33
12219;BME280;6172;42.646;23.344;2023-04-26T09:58:09;93694.84;;;14.23;57.09
12219;BME280;6172;42.646;23.344;2023-04-26T10:00:37;93703.78;;;14.50;54.87
12219;BME280;6172;42.646;23.344;2023-04-26T10:03:07;93692.59;;;14.63;54.32
12219;BME280;6172;42.646;23.344;2023-04-26T10:05:35;93693.13;;;14.94;55.29
12219;BME280;6172;42.646;23.344;2023-04-26T10:08:04;93694.50;;;14.48;54.47
12219;BME280;6172;42.646;23.344;2023-04-26T10:10:34;93696.53;;;14.71;52.52
12219;BME280;6172;42.646;23.344;2023-04-26T10:13:02;93687.41;;;14.65;53.03
12219;BME280;6172;42.646;23.344;2023-04-26T10:15:31;93680.59;;;15.26;53.10
12219;BME280;6172;42.646;23.344;2023-04-26T10:17:58;93674.31;;;15.72;50.25
12219;BME280;6172;42.646;23.344;2023-04-26T10:20:27;93671.59;;;16.01;49.50
12219;BME280;6172;42.646;23.344;2023-04-26T10:22:56;93671.47;;;15.81;49.22
12219;BME280;6172;42.646;23.344;2023-04-26T10:25:37;93669.88;;;15.51;48.54
12219;BME280;6172;42.646;23.344;2023-04-26T10:28:04;93673.16;;;15.17;49.21
12219;BME280;6172;42.646;23.344;2023-04-26T10:30:31;93673.97;;;14.76;48.97
12219;BME280;6172;42.646;23.344;2023-04-26T10:33:15;93673.13;;;14.61;50.17
12219;BME280;6172;42.646;23.344;2023-04-26T10:36:06;93673.94;;;14.52;49.93
12219;BME280;6172;42.646;23.344;2023-04-26T10:38:34;93675.06;;;14.28;49.87
12219;BME280;6172;42.646;23.344;2023-04-26T10:41:40;93678.47;;;14.05;50.11
12219;BME280;6172;42.646;23.344;2023-04-26T10:44:38;93680.88;;;14.21;50.76
12219;BME280;6172;42.646;23.344;2023-04-26T10:47:06;93679.38;;;14.11;51.20
12219;BME280;6172;42.646;23.344;2023-04-26T10:49:51;93671.25;;;14.25;51.16
12219;BME280;6172;42.646;23.344;2023-04-26T10:52:19;93667.34;;;14.08;49.69
12219;BME280;6172;42.646;23.344;2023-04-26T10:54:49;93677.69;;;14.13;49.33
12219;BME280;6172;42.646;23.344;2023-04-26T10:57:19;93673.13;;;14.19;49.00
12219;BME280;6172;42.646;23.344;2023-04-26T11:00:17;93671.03;;;14.47;48.07
12219;BME280;6172;42.646;23.344;2023-04-26T11:03:01;93665.47;;;14.65;48.93
12219;BME280;6172;42.646;23.344;2023-04-26T11:05:55;93663.22;;;14.54;47.76
12219;BME280;6172;42.646;23.344;2023-04-26T11:08:26;93667.53;;;14.88;47.82
12219;BME280;6172;42.646;23.344;2023-04-26T11:11:07;93668.22;;;14.65;47.11
12219;BME280;6172;42.646;23.344;2023-04-26T11:13:52;93674.16;;;14.72;46.99
12219;BME280;6172;42.646;23.344;2023-04-26T11:16:22;93661.41;;;14.93;45.91
12219;BME280;6172;42.646;23.344;2023-04-26T11:18:53;93662.50;;;14.54;45.70
12219;BME280;6172;42.646;23.344;2023-04-26T11:21:20;93671.81;;;14.80;46.09
12219;BME280;6172;42.646;23.344;2023-04-26T11:23:54;93667.81;;;14.90;46.35
12219;BME280;6172;42.646;23.344;2023-04-26T11:26:21;93664.94;;;14.52;46.13
12219;BME280;6172;42.646;23.344;2023-04-26T11:28:50;93668.59;;;14.49;45.92
12219;BME280;6172;42.646;23.344;2023-04-26T11:31:17;93680.94;;;14.44;46.37
12219;BME280;6172;42.646;23.344;2023-04-26T11:33:45;93672.38;;;14.51;46.34
12219;BME280;6172;42.646;23.344;2023-04-26T11:36:12;93665.47;;;14.74;45.76
12219;BME280;6172;42.646;23.344;2023-04-26T11:38:39;93680.00;;;14.56;46.30
12219;BME280;6172;42.646;23.344;2023-04-26T11:41:06;93679.22;;;14.56;46.68
12219;BME280;6172;42.646;23.344;2023-04-26T11:43:35;93678.97;;;14.45;45.77
12219;BME280;6172;42.646;23.344;2023-04-26T11:46:05;93668.81;;;14.69;45.62
12219;BME280;6172;42.646;23.344;2023-04-26T11:48:33;93668.50;;;14.76;44.68
12219;BME280;6172;42.646;23.344;2023-04-26T11:51:02;93676.13;;;14.72;44.32
12219;BME280;6172;42.646;23.344;2023-04-26T11:53:37;93666.88;;;14.60;44.02
12219;BME280;6172;42.646;23.344;2023-04-26T11:56:12;93669.47;;;14.64;44.46
12219;BME280;6172;42.646;23.344;2023-04-26T11:58:43;93660.41;;;14.40;45.64
12219;BME280;6172;42.646;23.344;2023-04-26T12:01:19;93672.81;;;14.59;45.68
12219;BME280;6172;42.646;23.344;2023-04-26T12:03:49;93667.91;;;14.63;44.27
12219;BME280;6172;42.646;23.344;2023-04-26T12:06:16;93662.41;;;14.72;44.23
12219;BME280;6172;42.646;23.344;2023-04-26T12:08:48;93667.66;;;14.61;43.98
12219;BME280;6172;42.646;23.344;2023-04-26T12:11:17;93660.47;;;14.72;44.20
12219;BME280;6172;42.646;23.344;2023-04-26T12:13:46;93656.41;;;14.50;45.12
12219;BME280;6172;42.646;23.344;2023-04-26T12:16:15;93649.28;;;14.43;45.59
12219;BME280;6172;42.646;23.344;2023-04-26T12:18:48;93661.81;;;14.77;45.62
12219;BME280;6172;42.646;23.344;2023-04-26T12:21:15;93660.34;;;14.90;44.43
12219;BME280;6172;42.646;23.344;2023-04-26T12:23:43;93640.78;;;14.74;44.48
12219;BME280;6172;42.646;23.344;2023-04-26T12:26:12;93659.78;;;14.45;44.29
12219;BME280;6172;42.646;23.344;2023-04-26T12:28:39;93653.38;;;14.48;44.92
12219;BME280;6172;42.646;23.344;2023-04-26T12:31:07;93658.13;;;14.80;44.69
12219;BME280;6172;42.646;23.344;2023-04-26T12:33:36;93653.41;;;14.30;45.39
12219;BME280;6172;42.646;23.344;2023-04-26T12:36:07;93646.97;;;14.51;46.07
12219;BME280;6172;42.646;23.344;2023-04-26T12:38:35;93642.31;;;14.66;47.06
12219;BME280;6172;42.646;23.344;2023-04-26T12:41:02;93636.81;;;14.33;45.88
12219;BME280;6172;42.646;23.344;2023-04-26T12:43:30;93659.47;;;14.43;46.05
12219;BME280;6172;42.646;23.344;2023-04-26T12:45:56;93647.38;;;14.17;46.88
12219;BME280;6172;42.646;23.344;2023-04-26T12:48:23;93646.31;;;14.14;46.14
12219;BME280;6172;42.646;23.344;2023-04-26T12:50:52;93643.31;;;14.12;46.68
12219;BME280;6172;42.646;23.344;2023-04-26T12:53:19;93640.06;;;14.23;46.03
12219;BME280;6172;42.646;23.344;2023-04-26T12:55:49;93640.97;;;14.20;47.85
12219;BME280;6172;42.646;23.344;2023-04-26T12:58:19;93644.31;;;14.24;49.41
12219;BME280;6172;42.646;23.344;2023-04-26T13:00:46;93660.00;;;14.32;48.08
12219;BME280;6172;42.646;23.344;2023-04-26T13:03:15;93651.59;;;14.27;49.96
12219;BME280;6172;42.646;23.344;2023-04-26T13:05:44;93647.22;;;14.20;47.83
12219;BME280;6172;42.646;23.344;2023-04-26T13:08:12;93659.16;;;13.99;46.10